Mc Minnville Municipal Airport
KMMV : now visible

Airfield :











YOU CAN JOIN US ON...

 
LOGIN :

Register | Disclaimer

   EN    FR    IT 

 









Legend :    VFR   Marginal VFR   IFR   Intensive IFR   Very Intensive IFR
Visi :
Ceiling :
>= 8 km
>= 3000ft
5 to 8 km
1000 to 3000 ft
1500m to 5 km
500 to 1000 ft
800 to 1500m
200 to 500 ft
< 800m
< 200 ft
Symbols :   Thunderstorms  Fog  Heavy snow  Heavy precipitations  Wind > 20 kt






- Airport Elevation : 163 ft


KMMV - Mc Minnville Municipal

CURRENT METAR :
  • 291753Z AUTO 20003KT 10SM CLR 22/11 A2991 RMK AO2 SLP127 T02170111 10217 20117 58013

EXPIRED METARs :
  • 291653Z AUTO 00000KT 10SM CLR 20/10 A2993 RMK AO2 SLP133 T02000100
  • 291553Z AUTO 26003KT 10SM CLR 18/11 A2995 RMK AO2 SLP140 T01780106
  • 291453Z AUTO 25004KT 10SM CLR 16/10 A2995 RMK AO2 SLP140 T01560100 51009

TAF N/A
KZSE FIR / North America



MET'MAP, your aeronautical weather chart ! - Copyright ORBIFLY December 2007 - Disclaimer

ORBIFLY MET'MAP TEAM :

Programming & Development : Alexandra Zaïnal
Concept & original design : Baudouin d'Aumeries
Assistance for programming : Marc-Olivier Méhu
Technical & hardware support : Manuel Goepfert

Contact : metmap@orbifly.com




SOURCES & CREDITS :

   NOAA       Earth
Advisory